Time;durP1;ratioP1;P1;durP2;ratioP2;P2;SDS_P1;SDS_P2;PMS_P1;PMS_P2;Temp;Humidity;BMP_temperature;BMP_pressure;BME280_temperature;BME280_humidity;BME280_pressure;Samples;Min_cycle;Max_cycle;Signal;HPM_P1;HPM_P2
2023/09/09 00:00:10;;;;;;;11.90;10.70;;;;;;;20.14;99.06;98223.94;4132345;28;21253;-88
2023/09/09 00:02:14;;;;;;;14.70;11.17;;;;;;;20.11;98.96;98219.78;4121504;28;20706;-89
2023/09/09 00:04:17;;;;;;;12.10;10.90;;;;;;;20.10;98.60;98226.09;4102973;28;21495;-89
2023/09/09 00:06:20;;;;;;;11.80;10.60;;;;;;;20.12;98.27;98231.22;4110185;28;21005;-89
2023/09/09 00:08:22;;;;;;;12.20;10.80;;;;;;;20.08;97.34;98219.28;4121762;28;21155;-88
2023/09/09 00:10:26;;;;;;;12.33;11.10;;;;;;;20.05;99.24;98219.59;4109175;28;20764;-89
2023/09/09 00:12:29;;;;;;;12.50;11.20;;;;;;;20.02;98.79;98222.56;4118818;28;20742;-89
2023/09/09 00:14:32;;;;;;;12.13;10.90;;;;;;;20.00;97.23;98221.91;4105145;28;20640;-89
2023/09/09 00:16:37;;;;;;;12.23;11.03;;;;;;;19.98;98.83;98221.22;4106412;28;20731;-89
2023/09/09 00:18:40;;;;;;;13.63;10.63;;;;;;;19.95;97.86;98218.88;4111822;28;20712;-89
2023/09/09 00:20:42;;;;;;;12.70;11.50;;;;;;;19.91;97.82;98217.56;4120308;28;21085;-89
2023/09/09 00:22:45;;;;;;;12.80;11.50;;;;;;;19.89;97.85;98222.16;4106350;28;21233;-89
2023/09/09 00:24:48;;;;;;;12.10;10.90;;;;;;;19.87;97.59;98213.56;4132859;28;20646;-89
2023/09/09 00:26:52;;;;;;;11.87;10.63;;;;;;;19.86;99.20;98222.50;4124165;28;21081;-89
2023/09/09 00:28:55;;;;;;;11.93;10.73;;;;;;;19.84;97.52;98213.84;4122800;28;20629;-89
2023/09/09 00:30:58;;;;;;;12.57;11.27;;;;;;;19.82;98.26;98221.13;4101744;28;20640;-89
2023/09/09 00:33:03;;;;;;;12.97;11.60;;;;;;;19.82;98.10;98223.78;4126167;28;21184;-88
2023/09/09 00:35:07;;;;;;;15.10;12.30;;;;;;;19.83;98.36;98222.78;4124004;28;20634;-88
2023/09/09 00:37:10;;;;;;;14.70;12.40;;;;;;;19.81;98.75;98224.75;4124202;28;20639;-89
2023/09/09 00:39:13;;;;;;;12.93;10.87;;;;;;;19.80;99.63;98217.81;4118361;28;20636;-89
2023/09/09 00:41:18;;;;;;;12.60;11.30;;;;;;;19.79;99.46;98221.44;4125250;28;21274;-89
2023/09/09 00:43:23;;;;;;;13.13;11.60;;;;;;;19.77;98.64;98215.47;4114826;28;20648;-88
2023/09/09 00:45:27;;;;;;;12.67;11.37;;;;;;;19.77;98.59;98226.06;4107533;28;21078;-89
2023/09/09 00:47:30;;;;;;;13.53;11.30;;;;;;;19.74;98.81;98226.38;4119464;28;21024;-89
2023/09/09 00:49:35;;;;;;;12.57;11.20;;;;;;;19.71;99.63;98216.13;4117985;28;20739;-89
2023/09/09 00:51:38;;;;;;;14.13;12.67;;;;;;;19.69;99.53;98223.34;4125757;28;21220;-89
2023/09/09 00:53:42;;;;;;;13.03;11.73;;;;;;;19.67;99.60;98214.75;4124869;28;21188;-89
2023/09/09 00:55:46;;;;;;;14.00;11.77;;;;;;;19.66;98.56;98226.31;4119627;28;20699;-89
2023/09/09 00:57:49;;;;;;;14.60;12.17;;;;;;;19.65;98.42;98222.03;4122120;28;20641;-88
2023/09/09 00:59:52;;;;;;;12.73;11.40;;;;;;;19.64;98.74;98222.19;4122196;28;21256;-89
2023/09/09 01:01:57;;;;;;;13.03;11.73;;;;;;;19.62;99.01;98218.84;4124399;28;21284;-87
2023/09/09 01:04:00;;;;;;;11.87;10.67;;;;;;;19.59;98.45;98220.00;4103734;28;20683;-87
2023/09/09 01:06:05;;;;;;;13.13;11.53;;;;;;;19.58;99.62;98222.81;4116797;28;20674;-88
2023/09/09 01:08:08;;;;;;;12.83;11.63;;;;;;;19.56;98.59;98225.63;4104062;28;20644;-87
2023/09/09 01:10:12;;;;;;;14.10;12.60;;;;;;;19.52;99.78;98216.31;4115569;28;20651;-87
2023/09/09 01:12:15;;;;;;;13.43;11.43;;;;;;;19.51;99.58;98221.78;4118313;28;20683;-87
2023/09/09 01:14:18;;;;;;;13.37;11.93;;;;;;;19.50;99.62;98228.88;4108195;28;20614;-87
2023/09/09 01:16:22;;;;;;;13.50;12.13;;;;;;;19.49;98.42;98223.75;4127999;28;21513;-87
2023/09/09 01:18:24;;;;;;;13.33;11.87;;;;;;;19.47;99.45;98225.75;4121526;28;21189;-87
2023/09/09 01:20:30;;;;;;;13.93;12.53;;;;;;;19.45;99.43;98219.75;4110250;28;21291;-87
2023/09/09 01:22:35;;;;;;;12.80;11.50;;;;;;;19.44;99.38;98226.88;4105573;28;20694;-87
2023/09/09 01:24:38;;;;;;;13.30;11.83;;;;;;;19.44;99.67;98232.16;4111933;28;20682;-87
2023/09/09 01:26:42;;;;;;;13.10;11.90;;;;;;;19.42;99.10;98234.16;4123690;28;21222;-87
2023/09/09 01:28:45;;;;;;;13.23;11.83;;;;;;;19.41;99.76;98226.34;4113854;28;20636;-87
2023/09/09 01:30:49;;;;;;;13.50;11.83;;;;;;;19.41;98.48;98236.94;4121422;28;20763;-87
2023/09/09 01:32:52;;;;;;;13.17;11.93;;;;;;;19.37;98.70;98231.09;4107544;28;20640;-87
2023/09/09 01:34:55;;;;;;;13.17;11.87;;;;;;;19.35;99.97;98228.78;4119988;28;20638;-87
2023/09/09 01:36:58;;;;;;;15.17;12.57;;;;;;;19.34;99.63;98232.44;4119565;28;20623;-87
2023/09/09 01:39:03;;;;;;;13.70;12.30;;;;;;;19.32;98.85;98226.44;4130581;28;20632;-87
2023/09/09 01:41:06;;;;;;;13.87;12.43;;;;;;;19.31;99.48;98236.19;4109178;28;20668;-87
2023/09/09 01:43:11;;;;;;;14.13;12.73;;;;;;;19.29;99.58;98227.59;4125067;28;20663;-87
2023/09/09 01:45:15;;;;;;;13.30;11.90;;;;;;;19.29;99.76;98229.38;4103343;28;20632;-87
2023/09/09 01:47:19;;;;;;;13.10;11.90;;;;;;;19.29;99.79;98232.88;4115126;28;20764;-87
2023/09/09 01:49:22;;;;;;;13.57;12.27;;;;;;;19.27;99.04;98234.03;4117571;28;20650;-87
2023/09/09 01:51:26;;;;;;;14.13;12.60;;;;;;;19.23;99.41;98235.31;4108612;28;21203;-87
2023/09/09 01:53:29;;;;;;;14.13;12.73;;;;;;;19.19;98.31;98231.31;4119312;28;20627;-87
2023/09/09 01:55:34;;;;;;;13.60;12.30;;;;;;;19.14;99.34;98233.56;4106396;28;20696;-87
2023/09/09 01:57:38;;;;;;;14.07;12.57;;;;;;;19.08;98.60;98234.22;4125988;28;20639;-88
2023/09/09 01:59:41;;;;;;;13.90;12.33;;;;;;;19.06;98.32;98237.00;4129153;28;20739;-87
2023/09/09 02:01:44;;;;;;;14.20;12.80;;;;;;;19.04;98.22;98235.50;4127379;28;20662;-87
2023/09/09 02:03:48;;;;;;;15.10;12.80;;;;;;;19.03;99.30;98234.69;4123321;28;20651;-87
2023/09/09 02:05:51;;;;;;;14.60;12.80;;;;;;;19.04;98.81;98230.22;4118273;28;20799;-87
2023/09/09 02:07:55;;;;;;;13.70;12.20;;;;;;;19.06;100.00;98231.72;4128203;28;20815;-87
2023/09/09 02:09:58;;;;;;;14.10;12.50;;;;;;;19.05;99.22;98234.53;4120293;28;20672;-87
2023/09/09 02:12:04;;;;;;;14.27;12.87;;;;;;;19.05;99.92;98229.22;4103580;28;20762;-87
2023/09/09 02:14:09;;;;;;;14.37;12.87;;;;;;;19.03;100.00;98224.09;4125225;28;20678;-89
2023/09/09 02:16:12;;;;;;;14.03;12.67;;;;;;;19.02;100.00;98226.91;4127917;28;20742;-89
2023/09/09 02:18:15;;;;;;;13.37;12.07;;;;;;;19.03;100.00;98228.53;4106537;28;20989;-89
2023/09/09 02:20:20;;;;;;;16.57;13.00;;;;;;;19.03;99.53;98225.91;4120311;28;20726;-89
2023/09/09 02:22:23;;;;;;;14.70;12.60;;;;;;;19.03;99.66;98228.53;4110920;28;20735;-88
2023/09/09 02:24:26;;;;;;;12.47;11.27;;;;;;;18.99;100.00;98228.00;4110174;28;20636;-89
2023/09/09 02:26:29;;;;;;;12.93;11.63;;;;;;;18.99;99.41;98232.47;4126477;28;20666;-88
2023/09/09 02:28:34;;;;;;;13.63;12.23;;;;;;;18.99;99.11;98224.53;4123234;28;20631;-89
2023/09/09 02:30:37;;;;;;;14.00;12.60;;;;;;;18.97;99.11;98223.81;4137484;28;20637;-88
2023/09/09 02:32:40;;;;;;;13.53;12.23;;;;;;;18.96;100.00;98219.53;4110597;28;20624;-89
2023/09/09 02:34:44;;;;;;;16.67;12.50;;;;;;;18.94;100.00;98217.06;4117451;28;20677;-88
2023/09/09 02:37:13;;;;;;;14.43;12.83;;;;;;;18.95;99.53;98218.69;4119251;28;21312;-89
2023/09/09 02:39:16;;;;;;;13.83;12.53;;;;;;;18.93;99.37;98215.38;4122098;28;21059;-89
2023/09/09 02:41:19;;;;;;;13.37;11.67;;;;;;;18.90;99.82;98213.03;4117104;28;20641;-89
2023/09/09 02:43:22;;;;;;;14.20;12.70;;;;;;;18.87;99.57;98209.03;4119954;28;20640;-88
2023/09/09 02:45:27;;;;;;;15.30;13.00;;;;;;;18.84;99.79;98210.19;4117059;28;20671;-88
2023/09/09 02:47:30;;;;;;;13.47;12.07;;;;;;;18.83;99.96;98211.16;4123708;28;21189;-88
2023/09/09 02:49:32;;;;;;;13.83;12.43;;;;;;;18.79;99.77;98212.44;4124964;28;20670;-88
2023/09/09 02:51:36;;;;;;;13.93;12.60;;;;;;;18.79;99.32;98206.31;4111512;28;21247;-88
2023/09/09 02:53:39;;;;;;;16.03;13.63;;;;;;;18.79;100.00;98207.16;4131341;28;20750;-89
2023/09/09 02:55:41;;;;;;;13.30;11.90;;;;;;;18.77;99.63;98206.47;4119162;28;21045;-89
2023/09/09 02:57:47;;;;;;;14.87;13.37;;;;;;;18.76;100.00;98209.28;4109117;28;20720;-88
2023/09/09 02:59:51;;;;;;;14.73;13.23;;;;;;;18.74;100.00;98208.59;4124959;28;20628;-88
2023/09/09 03:01:55;;;;;;;14.43;12.27;;;;;;;18.72;99.21;98207.91;4126446;28;21522;-88
2023/09/09 03:03:59;;;;;;;15.60;13.17;;;;;;;18.72;99.82;98205.25;4114595;28;20645;-88
2023/09/09 03:06:02;;;;;;;13.80;12.40;;;;;;;18.68;99.83;98204.75;4112561;28;20656;-89
2023/09/09 03:08:06;;;;;;;14.47;13.07;;;;;;;18.70;100.00;98207.25;4112433;28;20687;-88
2023/09/09 03:10:09;;;;;;;15.10;13.43;;;;;;;18.67;100.00;98208.41;4122592;28;21007;-89
2023/09/09 03:12:16;;;;;;;14.30;12.83;;;;;;;18.64;99.44;98208.69;4129964;28;20626;-88
2023/09/09 03:14:20;;;;;;;13.97;12.50;;;;;;;18.62;99.48;98208.00;4123911;28;20683;-89
2023/09/09 03:16:23;;;;;;;14.80;13.30;;;;;;;18.60;99.34;98217.91;4104364;28;21275;-88
2023/09/09 03:18:28;;;;;;;14.07;12.67;;;;;;;18.58;99.59;98209.31;4123490;28;20643;-88
2023/09/09 03:20:31;;;;;;;15.40;12.43;;;;;;;18.56;99.99;98211.25;4119605;28;20643;-88
2023/09/09 03:22:33;;;;;;;13.70;12.30;;;;;;;18.54;99.90;98217.69;4121045;28;20683;-88
2023/09/09 03:24:36;;;;;;;16.97;12.90;;;;;;;18.53;99.95;98221.28;4121808;28;20634;-87
2023/09/09 03:26:40;;;;;;;14.20;12.20;;;;;;;18.51;99.91;98216.16;4121484;28;20987;-87
2023/09/09 03:28:44;;;;;;;14.67;13.10;;;;;;;18.50;100.00;98217.13;4126351;28;20705;-87
2023/09/09 03:30:55;;;;;;;14.60;13.10;;;;;;;18.50;100.00;98217.13;4123362;28;20642;-87
2023/09/09 03:33:00;;;;;;;14.37;12.87;;;;;;;18.50;99.46;98214.47;4118850;28;21475;-87
2023/09/09 03:35:06;;;;;;;14.20;12.70;;;;;;;18.51;99.57;98217.97;4125148;28;20639;-87
2023/09/09 03:37:09;;;;;;;14.97;12.73;;;;;;;18.48;99.50;98213.81;4114567;28;22668;-87
2023/09/09 03:39:13;;;;;;;14.40;12.80;;;;;;;18.48;99.89;98213.00;4100391;28;20640;-87
2023/09/09 03:41:16;;;;;;;14.73;12.40;;;;;;;18.46;99.93;98213.13;4114945;28;20698;-87
2023/09/09 03:43:19;;;;;;;15.83;12.70;;;;;;;18.45;99.43;98215.94;4126588;28;21029;-87
2023/09/09 03:45:23;;;;;;;14.33;12.83;;;;;;;18.42;99.97;98209.13;4110049;28;20620;-87
2023/09/09 03:47:26;;;;;;;13.50;12.10;;;;;;;18.40;99.48;98207.59;4108686;28;21285;-87
2023/09/09 03:49:30;;;;;;;15.40;13.20;;;;;;;18.39;99.60;98205.97;4110442;28;20723;-87
2023/09/09 03:51:34;;;;;;;14.60;13.10;;;;;;;18.38;99.92;98211.41;4108584;28;20639;-87
2023/09/09 03:53:36;;;;;;;15.93;13.77;;;;;;;18.37;99.92;98212.38;4110584;28;20734;-87
2023/09/09 03:55:40;;;;;;;13.97;12.57;;;;;;;18.36;100.00;98215.97;4124381;28;20630;-87
2023/09/09 03:57:43;;;;;;;13.83;12.37;;;;;;;18.35;100.00;98211.69;4115696;28;20678;-87
2023/09/09 03:59:48;;;;;;;14.60;13.00;;;;;;;18.34;100.00;98217.94;4123870;28;20644;-87
2023/09/09 04:01:51;;;;;;;14.00;12.60;;;;;;;18.32;100.00;98218.09;4117095;28;20687;-87
2023/09/09 04:03:54;;;;;;;15.00;13.40;;;;;;;18.32;99.90;98219.91;4119892;28;20658;-87
2023/09/09 04:05:56;;;;;;;13.17;11.83;;;;;;;18.31;100.00;98220.88;4126803;28;21020;-87
2023/09/09 04:08:03;;;;;;;15.17;13.57;;;;;;;18.29;99.61;98215.75;4110076;28;21254;-87
2023/09/09 04:10:08;;;;;;;14.57;13.03;;;;;;;18.30;99.99;98219.25;4122213;28;20703;-87
2023/09/09 04:12:11;;;;;;;17.30;13.07;;;;;;;18.30;100.00;98222.72;4109936;28;20695;-87
2023/09/09 04:14:14;;;;;;;14.73;13.23;;;;;;;18.33;100.00;98221.56;4123716;28;20734;-87
2023/09/09 04:16:17;;;;;;;13.70;12.40;;;;;;;18.31;100.00;98220.88;4108689;28;20668;-87
2023/09/09 04:18:21;;;;;;;16.93;14.10;;;;;;;18.30;99.96;98219.25;4133011;28;20796;-87
2023/09/09 04:20:44;;;;;;;15.07;13.47;;;;;;;18.27;100.00;98220.38;4113115;28;20740;-87
2023/09/09 04:22:47;;;;;;;14.53;13.10;;;;;;;18.26;99.99;98229.25;4112684;28;20656;-87
2023/09/09 04:24:53;;;;;;;14.77;12.70;;;;;;;18.23;99.79;98220.81;4122708;28;21330;-87
2023/09/09 04:26:57;;;;;;;14.53;13.03;;;;;;;18.17;99.83;98213.47;4125360;28;20687;-87
2023/09/09 04:29:02;;;;;;;14.80;13.40;;;;;;;18.15;99.93;98220.72;4127186;28;20642;-87
2023/09/09 04:31:05;;;;;;;12.93;11.63;;;;;;;18.14;99.56;98217.22;4115528;28;20635;-87
2023/09/09 04:33:12;;;;;;;14.53;13.13;;;;;;;18.13;99.81;98212.09;4121538;28;20640;-87
2023/09/09 04:35:18;;;;;;;15.17;13.43;;;;;;;18.14;100.00;98219.88;4120724;28;20640;-87
2023/09/09 04:37:21;;;;;;;14.80;13.30;;;;;;;18.13;100.00;98218.22;4114732;28;21098;-87
2023/09/09 04:39:24;;;;;;;14.13;12.73;;;;;;;18.13;99.92;98220.88;4106049;28;20651;-87
2023/09/09 04:41:29;;;;;;;14.20;12.77;;;;;;;18.12;100.00;98218.34;4109747;28;20627;-87
2023/09/09 04:43:32;;;;;;;14.40;12.90;;;;;;;18.11;100.00;98222.78;4108951;28;20702;-87
2023/09/09 04:45:35;;;;;;;15.67;13.33;;;;;;;18.12;100.00;98221.00;4100585;28;20635;-87
2023/09/09 04:47:39;;;;;;;14.70;13.20;;;;;;;18.11;100.00;98229.88;4132436;28;20630;-87
2023/09/09 04:49:42;;;;;;;15.97;12.70;;;;;;;18.09;99.89;98224.75;4109327;28;20743;-87
2023/09/09 04:51:45;;;;;;;18.20;14.50;;;;;;;18.10;99.99;98223.78;4121973;28;20996;-87
2023/09/09 04:53:50;;;;;;;14.57;13.07;;;;;;;18.10;100.00;98221.13;4106154;28;20674;-87
2023/09/09 04:55:53;;;;;;;14.53;13.10;;;;;;;18.10;100.00;98230.84;4117535;28;20771;-87
2023/09/09 04:57:58;;;;;;;14.43;12.93;;;;;;;18.11;100.00;98230.69;4117099;28;20671;-87
2023/09/09 05:00:06;;;;;;;14.47;12.93;;;;;;;18.10;100.00;98234.34;4108135;28;20632;-87
2023/09/09 05:02:10;;;;;;;14.73;12.80;;;;;;;18.10;100.00;98229.06;4110242;28;20647;-87
2023/09/09 05:04:14;;;;;;;14.30;12.80;;;;;;;18.12;100.00;98226.28;4122447;28;21286;-87
2023/09/09 05:06:17;;;;;;;15.20;13.60;;;;;;;18.10;100.00;98230.84;4112492;28;21206;-87
2023/09/09 05:08:21;;;;;;;16.43;12.93;;;;;;;18.06;100.00;98238.22;4123381;28;21082;-87
2023/09/09 05:10:27;;;;;;;15.50;13.90;;;;;;;18.10;100.00;98233.47;4123898;28;20645;-87
2023/09/09 05:12:30;;;;;;;15.03;13.50;;;;;;;18.16;100.00;98230.28;4114098;28;20707;-87
2023/09/09 05:14:35;;;;;;;14.53;13.10;;;;;;;18.24;99.93;98233.03;4107699;28;20631;-87
2023/09/09 05:16:38;;;;;;;14.47;12.97;;;;;;;18.29;98.98;98233.41;4106197;28;21397;-87
2023/09/09 05:18:43;;;;;;;14.20;12.57;;;;;;;18.35;99.44;98238.94;4122454;28;20635;-87
2023/09/09 05:20:45;;;;;;;14.60;13.03;;;;;;;18.44;99.41;98238.84;4104205;28;20665;-87
2023/09/09 05:22:51;;;;;;;15.10;13.50;;;;;;;18.55;99.51;98241.31;4116358;28;20731;-87
2023/09/09 05:24:55;;;;;;;16.33;14.37;;;;;;;18.65;98.91;98249.16;4120066;28;20747;-87
2023/09/09 05:26:58;;;;;;;14.87;13.37;;;;;;;18.75;98.52;98248.09;4122081;28;20637;-87
2023/09/09 05:29:01;;;;;;;15.27;13.83;;;;;;;18.85;98.44;98248.84;4117483;28;20691;-87
2023/09/09 05:31:07;;;;;;;14.70;13.20;;;;;;;18.94;97.63;98250.56;4123650;28;20659;-87
2023/09/09 05:33:11;;;;;;;14.43;12.90;;;;;;;19.03;98.06;98252.34;4106772;28;20732;-87
2023/09/09 05:35:15;;;;;;;14.63;13.10;;;;;;;19.12;97.17;98254.06;4123860;28;20631;-87
2023/09/09 05:37:18;;;;;;;14.50;13.10;;;;;;;19.23;97.13;98251.16;4123513;28;20636;-87
2023/09/09 05:39:22;;;;;;;14.23;12.73;;;;;;;19.33;96.47;98243.97;4123533;28;20976;-87
2023/09/09 05:41:24;;;;;;;15.23;13.27;;;;;;;19.43;96.34;98259.59;4123526;28;20646;-87
2023/09/09 05:43:27;;;;;;;15.10;13.60;;;;;;;19.52;95.91;98250.72;4117127;28;20652;-88
2023/09/09 05:45:30;;;;;;;14.50;12.83;;;;;;;19.61;96.66;98255.09;4125306;28;20624;-89
2023/09/09 05:47:35;;;;;;;14.27;12.80;;;;;;;19.69;96.28;98264.91;4117204;28;20636;-88
2023/09/09 05:49:40;;;;;;;13.50;12.10;;;;;;;19.80;95.93;98260.19;4121268;28;20646;-89
2023/09/09 05:51:45;;;;;;;15.00;13.40;;;;;;;19.92;95.54;98261.56;4125056;28;20637;-89
2023/09/09 05:53:48;;;;;;;14.03;12.63;;;;;;;20.05;94.76;98265.44;4109690;28;21069;-88
2023/09/09 05:55:51;;;;;;;14.37;12.87;;;;;;;20.19;95.33;98267.50;4126880;28;20647;-89
2023/09/09 05:57:55;;;;;;;14.93;13.30;;;;;;;20.31;94.11;98268.84;4105283;28;20628;-88
2023/09/09 05:59:58;;;;;;;13.33;12.03;;;;;;;20.43;93.70;98265.78;4105577;28;20666;-89
2023/09/09 06:02:01;;;;;;;14.53;12.97;;;;;;;20.57;91.88;98272.28;4124696;28;20689;-89
2023/09/09 06:04:06;;;;;;;14.90;13.30;;;;;;;20.69;92.98;98269.19;4104505;28;20689;-89
2023/09/09 06:06:09;;;;;;;14.33;12.93;;;;;;;20.80;93.39;98274.16;4125777;28;20654;-88
2023/09/09 06:08:13;;;;;;;15.33;13.80;;;;;;;20.90;92.58;98272.22;4104065;28;20639;-89
2023/09/09 06:10:17;;;;;;;14.13;12.73;;;;;;;21.04;92.43;98282.16;4119989;28;20640;-88
2023/09/09 06:12:20;;;;;;;14.20;12.93;;;;;;;21.13;92.04;98270.56;4120961;28;20639;-88
2023/09/09 06:14:23;;;;;;;14.57;13.07;;;;;;;21.24;91.87;98276.34;4120521;28;21213;-88
2023/09/09 06:16:25;;;;;;;15.93;14.30;;;;;;;21.38;91.27;98286.31;4123350;28;20640;-89
2023/09/09 06:18:28;;;;;;;15.37;13.90;;;;;;;21.48;90.03;98287.00;4107832;28;20629;-89
2023/09/09 06:20:33;;;;;;;14.20;12.80;;;;;;;21.62;91.91;98286.31;4121816;28;21250;-89
2023/09/09 06:22:37;;;;;;;14.77;13.43;;;;;;;21.71;89.79;98293.28;4119801;28;20647;-89
2023/09/09 06:24:40;;;;;;;14.43;12.93;;;;;;;21.82;89.92;98291.09;4108828;28;20653;-89
2023/09/09 06:26:43;;;;;;;16.33;13.67;;;;;;;21.95;90.14;98291.38;4105661;28;20639;-88
2023/09/09 06:28:47;;;;;;;15.17;13.67;;;;;;;22.09;90.65;98288.06;4131177;28;21076;-89
2023/09/09 06:30:50;;;;;;;15.10;13.70;;;;;;;22.16;89.74;98291.66;4112508;28;20636;-89
2023/09/09 06:32:54;;;;;;;15.70;13.53;;;;;;;22.33;90.72;98291.47;4124396;28;20723;-89
2023/09/09 06:34:56;;;;;;;14.40;13.00;;;;;;;22.41;88.00;98289.59;4124518;28;20679;-89
2023/09/09 06:37:01;;;;;;;15.40;13.20;;;;;;;22.44;87.69;98293.75;4120001;28;20761;-89
2023/09/09 06:39:03;;;;;;;15.17;13.63;;;;;;;22.45;87.14;98290.09;4117159;28;20635;-89
2023/09/09 06:41:06;;;;;;;14.40;13.00;;;;;;;22.52;87.31;98297.22;4123041;28;20632;-87
2023/09/09 06:43:09;;;;;;;14.83;13.43;;;;;;;22.70;90.39;98300.41;4107115;28;20717;-86
2023/09/09 06:45:13;;;;;;;14.37;13.07;;;;;;;22.87;89.48;98307.34;4110468;28;20647;-87
2023/09/09 06:47:17;;;;;;;14.73;13.20;;;;;;;22.99;87.52;98308.63;4125640;28;20630;-86
2023/09/09 06:49:21;;;;;;;14.30;12.90;;;;;;;23.18;87.78;98305.47;4126678;28;20627;-86
2023/09/09 06:51:24;;;;;;;14.33;12.00;;;;;;;23.26;86.27;98304.41;4134588;28;20631;-87
2023/09/09 06:53:28;;;;;;;14.47;12.97;;;;;;;23.43;85.94;98308.59;4122470;28;20635;-85
2023/09/09 06:55:33;;;;;;;14.60;12.70;;;;;;;23.54;87.50;98310.03;4122401;28;20682;-85
2023/09/09 06:57:35;;;;;;;13.97;12.67;;;;;;;23.65;85.64;98309.59;4118974;28;20644;-85
2023/09/09 06:59:39;;;;;;;14.53;13.03;;;;;;;23.77;87.39;98319.69;4124197;28;21241;-85
2023/09/09 07:01:43;;;;;;;14.83;13.40;;;;;;;23.91;87.10;98310.88;4110777;28;20699;-85
2023/09/09 07:03:46;;;;;;;13.73;12.23;;;;;;;24.07;86.79;98316.03;4126359;28;21286;-85
2023/09/09 07:05:49;;;;;;;13.87;12.50;;;;;;;24.17;85.05;98322.75;4118362;28;20742;-85
2023/09/09 07:07:52;;;;;;;14.23;12.90;;;;;;;24.31;85.92;98316.56;4131171;28;20732;-85
2023/09/09 07:09:57;;;;;;;14.23;12.83;;;;;;;24.40;85.94;98316.34;4128338;28;20632;-85
2023/09/09 07:12:00;;;;;;;12.83;11.63;;;;;;;24.51;85.04;98315.88;4122881;28;20731;-88
2023/09/09 07:14:03;;;;;;;21.13;12.57;;;;;;;24.66;85.01;98317.50;4126389;28;20633;-87
2023/09/09 07:16:06;;;;;;;19.47;14.07;;;;;;;24.74;83.42;98319.25;4119048;28;20636;-87
2023/09/09 07:18:10;;;;;;;14.70;12.30;;;;;;;24.87;83.05;98320.22;4124365;28;20685;-88
2023/09/09 07:20:12;;;;;;;13.47;12.17;;;;;;;24.97;82.21;98322.59;4110026;28;20949;-85
2023/09/09 07:22:15;;;;;;;13.13;11.83;;;;;;;25.14;84.71;98319.53;4118567;28;20641;-87
2023/09/09 07:24:18;;;;;;;13.10;11.80;;;;;;;25.25;81.69;98321.72;4123348;28;20653;-87
2023/09/09 07:26:23;;;;;;;17.60;13.07;;;;;;;25.35;81.74;98323.03;4122322;28;20638;-87
2023/09/09 07:28:26;;;;;;;13.50;12.30;;;;;;;25.55;82.73;98333.94;4110318;28;20628;-87
2023/09/09 07:30:29;;;;;;;14.00;12.70;;;;;;;25.63;81.86;98326.59;4110541;28;20643;-87
2023/09/09 07:32:32;;;;;;;13.20;12.00;;;;;;;25.80;81.11;98328.00;4123603;28;20634;-87
2023/09/09 07:34:35;;;;;;;15.60;13.03;;;;;;;25.81;80.78;98324.31;4107870;28;20622;-87
2023/09/09 07:36:38;;;;;;;13.67;12.37;;;;;;;25.93;80.74;98325.44;4121666;28;20734;-87
2023/09/09 07:38:41;;;;;;;13.13;11.87;;;;;;;26.01;79.71;98320.78;4124916;28;20742;-87
2023/09/09 07:40:44;;;;;;;13.83;12.40;;;;;;;26.11;80.82;98327.41;4122425;28;20626;-87
2023/09/09 07:42:49;;;;;;;14.33;12.93;;;;;;;26.27;82.16;98316.44;4119571;28;20705;-88
2023/09/09 07:44:53;;;;;;;13.47;12.23;;;;;;;26.49;83.23;98328.72;4117335;28;20698;-88
2023/09/09 07:46:56;;;;;;;12.93;11.73;;;;;;;26.65;82.73;98317.69;4107540;28;21121;-87
2023/09/09 07:48:59;;;;;;;13.50;12.30;;;;;;;26.76;79.79;98325.13;4125779;28;20631;-85
2023/09/09 07:51:02;;;;;;;14.60;13.10;;;;;;;26.85;79.62;98327.47;4122076;28;20623;-85
2023/09/09 07:53:06;;;;;;;12.60;11.50;;;;;;;26.91;78.66;98323.16;4119982;28;21235;-85
2023/09/09 07:55:09;;;;;;;13.67;12.37;;;;;;;26.95;78.61;98321.75;4121329;28;20662;-88
2023/09/09 07:57:13;;;;;;;12.77;11.47;;;;;;;27.09;80.37;98325.09;4113327;28;20648;-87
2023/09/09 07:59:17;;;;;;;13.30;12.10;;;;;;;27.28;80.83;98318.94;4126236;28;20672;-85
2023/09/09 08:01:20;;;;;;;13.23;11.93;;;;;;;27.41;80.13;98332.38;4120892;28;20628;-86
2023/09/09 08:03:24;;;;;;;13.57;12.37;;;;;;;27.56;78.43;98327.69;4115464;28;20644;-87
2023/09/09 08:05:27;;;;;;;13.63;11.43;;;;;;;27.66;76.44;98325.41;4118016;28;20704;-87
2023/09/09 08:07:30;;;;;;;13.07;11.87;;;;;;;27.73;77.53;98332.44;4118013;28;20671;-86
2023/09/09 08:09:33;;;;;;;13.30;12.10;;;;;;;27.92;77.04;98334.31;4120089;28;21034;-89
2023/09/09 08:11:37;;;;;;;14.27;11.80;;;;;;;28.05;77.95;98327.09;4114832;28;20654;-86
2023/09/09 08:13:40;;;;;;;13.43;12.13;;;;;;;28.17;77.78;98333.47;4116631;28;21315;-87
2023/09/09 08:15:45;;;;;;;13.00;11.90;;;;;;;28.24;76.69;98334.31;4121549;28;20655;-86
2023/09/09 08:17:48;;;;;;;13.27;11.97;;;;;;;28.23;76.50;98327.28;4133889;28;21107;-86
2023/09/09 08:19:53;;;;;;;15.83;11.70;;;;;;;28.31;76.98;98328.91;4125247;28;20647;-87
2023/09/09 08:21:56;;;;;;;13.10;11.93;;;;;;;28.34;76.29;98336.56;4124428;28;20653;-88
2023/09/09 08:24:00;;;;;;;12.53;11.33;;;;;;;28.39;75.25;98326.03;4120830;28;20648;-87
2023/09/09 08:26:03;;;;;;;13.07;11.87;;;;;;;28.48;75.66;98325.59;4126640;28;20663;-86
2023/09/09 08:28:06;;;;;;;12.73;11.43;;;;;;;28.60;77.70;98335.47;4115322;28;20634;-86
2023/09/09 08:30:11;;;;;;;12.10;11.00;;;;;;;28.65;76.99;98332.97;4124086;28;21218;-88
2023/09/09 08:32:15;;;;;;;13.73;12.53;;;;;;;28.73;75.68;98340.00;4127237;28;20630;-88
2023/09/09 08:34:19;;;;;;;13.00;11.80;;;;;;;28.83;77.50;98335.00;4123899;28;20707;-87
2023/09/09 08:36:22;;;;;;;13.00;11.73;;;;;;;28.95;77.89;98336.81;4120643;28;20696;-86
2023/09/09 08:38:25;;;;;;;13.47;12.23;;;;;;;29.02;75.01;98330.38;4127388;28;20693;-86
2023/09/09 08:40:29;;;;;;;12.57;11.20;;;;;;;29.09;74.99;98330.31;4124607;28;21242;-88
2023/09/09 08:42:41;;;;;;;13.13;11.83;;;;;;;29.20;73.36;98337.75;4108831;28;20915;-86
2023/09/09 08:44:49;;;;;;;12.50;11.30;;;;;;;29.27;74.18;98331.28;4123339;28;20658;-86
2023/09/09 08:46:53;;;;;;;13.43;12.13;;;;;;;29.32;75.68;98336.00;4121425;28;20633;-86
2023/09/09 08:48:59;;;;;;;13.83;12.50;;;;;;;29.34;74.21;98340.16;4133686;28;20622;-86
2023/09/09 08:51:03;;;;;;;13.60;12.30;;;;;;;29.26;72.93;98335.03;4117709;28;20961;-86
2023/09/09 08:53:07;;;;;;;12.80;11.60;;;;;;;29.27;73.47;98331.28;4120767;28;20645;-86
2023/09/09 08:55:10;;;;;;;12.37;11.27;;;;;;;29.32;75.06;98336.88;4107618;28;20629;-87
2023/09/09 08:57:13;;;;;;;13.10;11.90;;;;;;;29.37;74.43;98333.53;4105335;28;20635;-86
2023/09/09 08:59:17;;;;;;;15.07;13.30;;;;;;;29.36;72.04;98340.75;4111489;28;21046;-87
2023/09/09 09:01:21;;;;;;;12.90;11.70;;;;;;;29.29;72.04;98328.38;4111838;28;21220;-89
2023/09/09 09:03:25;;;;;;;14.77;13.17;;;;;;;29.32;73.80;98342.25;4131676;28;20628;-87
2023/09/09 09:05:31;;;;;;;12.90;11.77;;;;;;;29.35;73.06;98336.44;4121969;28;20679;-86
2023/09/09 09:07:35;;;;;;;13.47;12.03;;;;;;;29.43;75.83;98341.53;4123485;28;21069;-86
2023/09/09 09:09:38;;;;;;;13.00;11.80;;;;;;;29.46;73.51;98340.31;4113952;28;20624;-87
2023/09/09 09:11:42;;;;;;;13.80;12.33;;;;;;;29.52;76.01;98343.75;4124154;28;20637;-86
2023/09/09 09:13:47;;;;;;;15.50;12.23;;;;;;;29.57;76.51;98340.41;4122834;28;20626;-86
2023/09/09 09:15:50;;;;;;;12.90;11.77;;;;;;;29.60;74.22;98337.28;4124170;28;20705;-87
2023/09/09 09:17:54;;;;;;;13.17;11.97;;;;;;;29.58;74.11;98336.69;4115967;28;20681;-86
2023/09/09 09:19:57;;;;;;;14.00;12.70;;;;;;;29.54;73.23;98336.31;4125385;28;20759;-86
2023/09/09 09:22:02;;;;;;;13.27;11.93;;;;;;;29.61;75.10;98338.94;4120668;28;21229;-87
2023/09/09 09:24:06;;;;;;;14.60;13.20;;;;;;;29.67;74.19;98335.38;4119397;28;20664;-87
2023/09/09 09:26:23;;;;;;;13.50;12.30;;;;;;;29.76;74.75;98334.09;4133191;28;20706;-86
2023/09/09 09:28:29;;;;;;;13.90;12.30;;;;;;;29.76;73.62;98323.31;4121015;28;22503;-87